This is the latest recevied weather packets stored in our database for station/object HB9TVK-13. If no packets are shown the sender has not sent any weather packets the latest 10 day(s).
| Time | Temp. | Humidity | Pressure | Rain* | Wind** | Luminosity | Snow |
|---|---|---|---|---|---|---|---|
| 1777712237 | 16.67° C | 62% | 1024.4 hPa | 0 mm | - | - | - |
| 1777711637 | 16.67° C | 63% | 1024.4 hPa | 0 mm | - | - | - |
| 1777711038 | 16.11° C | 63% | 1024.4 hPa | 0 mm | - | - | - |
| 1777710436 | 16.11° C | 64% | 1024.4 hPa | 0 mm | - | - | - |
| 1777709836 | 16.11° C | 63% | 1024.4 hPa | 0 mm | - | - | - |
| 1777709236 | 15.56° C | 66% | 1024.5 hPa | 0 mm | - | - | - |
| 1777708637 | 15.56° C | 66% | 1024.4 hPa | 0 mm | - | - | - |
| 1777708037 | 15° C | 68% | 1024.4 hPa | 0 mm | - | - | - |
| 1777707437 | 14.44° C | 67% | 1024.5 hPa | 0 mm | - | - | - |
| 1777706837 | 14.44° C | 66% | 1024.5 hPa | 0 mm | - | - | - |
| 1777706235 | 14.44° C | 64% | 1024.5 hPa | 0 mm | - | - | - |
| 1777705636 | 13.89° C | 65% | 1024.5 hPa | 0 mm | - | - | - |
| 1777705037 | 13.33° C | 65% | 1024.5 hPa | 0 mm | - | - | - |
| 1777704437 | 12.78° C | 66% | 1024.5 hPa | 0 mm | - | - | - |
| 1777703837 | 12.78° C | 66% | 1024.5 hPa | 0 mm | - | - | - |
| 1777703237 | 12.22° C | 67% | 1024.4 hPa | 0 mm | - | - | - |
| 1777702637 | 12.22° C | 66% | 1024.4 hPa | 0 mm | - | - | - |
| 1777702036 | 11.67° C | 69% | 1024.5 hPa | 0 mm | - | - | - |
| 1777701436 | 11.67° C | 67% | 1024.5 hPa | 0 mm | - | - | - |
| 1777700836 | 11.11° C | 69% | 1024.4 hPa | 0 mm | - | - | - |
| 1777700237 | 11.11° C | 70% | 1024.4 hPa | 0 mm | - | - | - |
| 1777699637 | 11.67° C | 67% | 1024.4 hPa | 0 mm | - | - | - |
| 1777699038 | 10.56° C | 69% | 1024.3 hPa | 0 mm | - | - | - |
| 1777698438 | 10° C | 69% | 1024.3 hPa | 0 mm | - | - | - |
| 1777697836 | 9.44° C | 69% | 1024.2 hPa | 0 mm | - | - | - |
* Rain latest hour (hover to see other rain measurements)
** Current wind speed in m/s (hover to see current wind gust speed)